sensor_id;sensor_type;location;lat;lon;timestamp;pressure;altitude;pressure_sealevel;temperature;humidity
15880;BME280;61999;51.514;14.614;2023-03-26T00:01:34;98835.41;;;-0.28;74.51
15880;BME280;61999;51.514;14.614;2023-03-26T00:04:05;98836.88;;;-0.56;73.67
15880;BME280;61999;51.514;14.614;2023-03-26T00:06:36;98833.72;;;-0.45;74.60
15880;BME280;61999;51.514;14.614;2023-03-26T00:09:07;98848.53;;;-0.65;73.66
15880;BME280;61999;51.514;14.614;2023-03-26T00:11:38;98844.22;;;-0.64;74.09
15880;BME280;61999;51.514;14.614;2023-03-26T00:14:06;98833.88;;;-0.64;73.86
15880;BME280;61999;51.514;14.614;2023-03-26T00:16:35;98828.38;;;-0.26;73.36
15880;BME280;61999;51.514;14.614;2023-03-26T00:19:02;98845.72;;;-0.60;73.39
15880;BME280;61999;51.514;14.614;2023-03-26T00:21:30;98846.69;;;-0.79;74.02
15880;BME280;61999;51.514;14.614;2023-03-26T00:24:01;98839.88;;;-0.48;72.57
15880;BME280;61999;51.514;14.614;2023-03-26T00:26:31;98841.22;;;-0.25;73.01
15880;BME280;61999;51.514;14.614;2023-03-26T00:29:00;98837.03;;;-0.59;72.31
15880;BME280;61999;51.514;14.614;2023-03-26T00:31:30;98840.72;;;-0.63;73.39
15880;BME280;61999;51.514;14.614;2023-03-26T00:33:58;98838.72;;;-0.58;73.72
15880;BME280;61999;51.514;14.614;2023-03-26T00:36:28;98858.97;;;-0.66;72.97
15880;BME280;61999;51.514;14.614;2023-03-26T00:38:56;98841.53;;;-0.79;73.79
15880;BME280;61999;51.514;14.614;2023-03-26T00:41:24;98852.25;;;-0.37;72.64
15880;BME280;61999;51.514;14.614;2023-03-26T00:43:59;98841.06;;;-0.38;71.74
15880;BME280;61999;51.514;14.614;2023-03-26T00:46:29;98840.47;;;-0.43;71.23
15880;BME280;61999;51.514;14.614;2023-03-26T00:48:58;98854.28;;;-0.11;72.28
15880;BME280;61999;51.514;14.614;2023-03-26T00:51:28;98839.25;;;-0.20;71.40
15880;BME280;61999;51.514;14.614;2023-03-26T00:53:57;98837.91;;;-0.11;71.51
15880;BME280;61999;51.514;14.614;2023-03-26T00:56:25;98830.06;;;-0.41;71.06
15880;BME280;61999;51.514;14.614;2023-03-26T00:58:53;98830.38;;;0.00;70.43
15880;BME280;61999;51.514;14.614;2023-03-26T01:01:25;98846.09;;;-0.35;71.83
15880;BME280;61999;51.514;14.614;2023-03-26T01:03:56;98847.81;;;-0.51;72.98
15880;BME280;61999;51.514;14.614;2023-03-26T01:06:33;98843.91;;;-0.42;72.54
15880;BME280;61999;51.514;14.614;2023-03-26T01:09:06;98850.75;;;-0.25;72.18
15880;BME280;61999;51.514;14.614;2023-03-26T01:11:39;98853.59;;;-0.46;72.47
15880;BME280;61999;51.514;14.614;2023-03-26T01:14:11;98845.59;;;-0.25;71.62
15880;BME280;61999;51.514;14.614;2023-03-26T01:16:45;98847.84;;;-0.03;71.07
15880;BME280;61999;51.514;14.614;2023-03-26T01:19:24;98854.84;;;-0.37;71.43
15880;BME280;61999;51.514;14.614;2023-03-26T01:21:56;98849.91;;;-0.10;71.35
15880;BME280;61999;51.514;14.614;2023-03-26T01:24:26;98848.25;;;-0.43;72.12
15880;BME280;61999;51.514;14.614;2023-03-26T01:27:10;98850.94;;;-0.28;72.37
15880;BME280;61999;51.514;14.614;2023-03-26T01:29:51;98855.06;;;-0.58;73.13
15880;BME280;61999;51.514;14.614;2023-03-26T01:32:34;98857.91;;;-0.62;73.97
15880;BME280;61999;51.514;14.614;2023-03-26T01:35:20;98863.72;;;-0.75;73.86
15880;BME280;61999;51.514;14.614;2023-03-26T01:38:07;98852.22;;;-0.53;73.65
15880;BME280;61999;51.514;14.614;2023-03-26T01:40:45;98853.75;;;-0.33;73.59
15880;BME280;61999;51.514;14.614;2023-03-26T01:43:27;98857.63;;;0.07;71.08
15880;BME280;61999;51.514;14.614;2023-03-26T01:46:01;98851.78;;;-0.12;71.35
15880;BME280;61999;51.514;14.614;2023-03-26T01:48:34;98856.38;;;-0.01;69.91
15880;BME280;61999;51.514;14.614;2023-03-26T01:51:05;98845.94;;;-0.65;73.09
15880;BME280;61999;51.514;14.614;2023-03-26T01:53:39;98858.69;;;-0.28;72.50
15880;BME280;61999;51.514;14.614;2023-03-26T01:56:18;98830.38;;;0.00;71.65
15880;BME280;61999;51.514;14.614;2023-03-26T01:59:13;98819.06;;;0.01;70.44
15880;BME280;61999;51.514;14.614;2023-03-26T02:01:56;98846.59;;;-0.44;71.67
15880;BME280;61999;51.514;14.614;2023-03-26T02:04:34;98839.16;;;-0.50;70.80
15880;BME280;61999;51.514;14.614;2023-03-26T02:07:13;98834.53;;;-0.45;71.47
15880;BME280;61999;51.514;14.614;2023-03-26T02:09:49;98846.72;;;-0.63;71.54
15880;BME280;61999;51.514;14.614;2023-03-26T02:12:22;98847.25;;;-0.24;70.58
15880;BME280;61999;51.514;14.614;2023-03-26T02:14:50;98834.53;;;-0.61;69.69
15880;BME280;61999;51.514;14.614;2023-03-26T02:17:19;98833.13;;;-0.19;71.16
15880;BME280;61999;51.514;14.614;2023-03-26T02:19:49;98843.25;;;-0.14;69.54
15880;BME280;61999;51.514;14.614;2023-03-26T02:22:18;98841.41;;;-0.12;69.17
15880;BME280;61999;51.514;14.614;2023-03-26T02:24:47;98834.53;;;-0.45;69.83
15880;BME280;61999;51.514;14.614;2023-03-26T02:27:15;98833.56;;;-0.26;69.14
15880;BME280;61999;51.514;14.614;2023-03-26T02:29:45;98835.56;;;-0.32;68.17
15880;BME280;61999;51.514;14.614;2023-03-26T02:32:13;98842.75;;;-0.86;70.08
15880;BME280;61999;51.514;14.614;2023-03-26T02:34:41;98846.63;;;-0.94;71.30
15880;BME280;61999;51.514;14.614;2023-03-26T02:37:09;98848.53;;;-0.65;71.04
15880;BME280;61999;51.514;14.614;2023-03-26T02:39:37;98846.44;;;-0.74;71.35
15880;BME280;61999;51.514;14.614;2023-03-26T02:42:05;98856.31;;;-0.98;72.84
15880;BME280;61999;51.514;14.614;2023-03-26T02:44:33;98857.84;;;-0.61;71.67
15880;BME280;61999;51.514;14.614;2023-03-26T02:47:02;98849.44;;;-0.33;70.71
15880;BME280;61999;51.514;14.614;2023-03-26T02:49:31;98859.03;;;-0.84;71.58
15880;BME280;61999;51.514;14.614;2023-03-26T02:51:59;98852.63;;;-0.94;73.91
15880;BME280;61999;51.514;14.614;2023-03-26T02:54:32;98858.25;;;-0.86;73.47
15880;BME280;61999;51.514;14.614;2023-03-26T02:57:01;98865.78;;;-0.81;73.14
15880;BME280;61999;51.514;14.614;2023-03-26T02:59:29;98865.09;;;-0.85;73.12
15880;BME280;61999;51.514;14.614;2023-03-26T03:01:56;98862.44;;;-0.50;72.59
15880;BME280;61999;51.514;14.614;2023-03-26T03:04:26;98858.75;;;-1.12;74.16
15880;BME280;61999;51.514;14.614;2023-03-26T03:06:54;98870.84;;;-1.30;76.26
15880;BME280;61999;51.514;14.614;2023-03-26T03:09:23;98856.03;;;-1.27;77.01
15880;BME280;61999;51.514;14.614;2023-03-26T03:11:51;98863.69;;;-1.08;77.21
15880;BME280;61999;51.514;14.614;2023-03-26T03:14:19;98868.66;;;-1.21;76.63
15880;BME280;61999;51.514;14.614;2023-03-26T03:16:47;98856.91;;;-1.10;76.91
15880;BME280;61999;51.514;14.614;2023-03-26T03:19:15;98853.03;;;-1.19;76.59
15880;BME280;61999;51.514;14.614;2023-03-26T03:21:44;98855.44;;;-0.81;76.26
15880;BME280;61999;51.514;14.614;2023-03-26T03:24:12;98869.63;;;-0.55;74.87
15880;BME280;61999;51.514;14.614;2023-03-26T03:26:44;98859.75;;;-0.64;74.16
15880;BME280;61999;51.514;14.614;2023-03-26T03:29:13;98869.28;;;-0.49;74.66
15880;BME280;61999;51.514;14.614;2023-03-26T03:31:41;98861.88;;;-0.23;73.77
15880;BME280;61999;51.514;14.614;2023-03-26T03:34:08;98871.25;;;-0.70;73.82
15880;BME280;61999;51.514;14.614;2023-03-26T03:36:36;98872.25;;;-0.72;75.70
15880;BME280;61999;51.514;14.614;2023-03-26T03:39:06;98867.53;;;-0.82;75.78
15880;BME280;61999;51.514;14.614;2023-03-26T03:41:34;98878.81;;;-0.83;75.68
15880;BME280;61999;51.514;14.614;2023-03-26T03:44:01;98871.16;;;-0.35;75.36
15880;BME280;61999;51.514;14.614;2023-03-26T03:46:29;98875.38;;;-0.83;75.73
15880;BME280;61999;51.514;14.614;2023-03-26T03:48:57;98876.16;;;-0.99;77.92
15880;BME280;61999;51.514;14.614;2023-03-26T03:51:25;98874.56;;;-1.01;78.10
15880;BME280;61999;51.514;14.614;2023-03-26T03:53:53;98887.56;;;-1.03;79.14
15880;BME280;61999;51.514;14.614;2023-03-26T03:56:23;98875.69;;;-0.89;80.14
15880;BME280;61999;51.514;14.614;2023-03-26T03:58:51;98880.31;;;-0.96;79.94
15880;BME280;61999;51.514;14.614;2023-03-26T04:01:19;98872.28;;;-0.90;80.38
15880;BME280;61999;51.514;14.614;2023-03-26T04:03:48;98885.19;;;-0.72;80.42
15880;BME280;61999;51.514;14.614;2023-03-26T04:06:16;98876.53;;;-0.89;79.60
15880;BME280;61999;51.514;14.614;2023-03-26T04:08:45;98883.94;;;-0.65;79.16
15880;BME280;61999;51.514;14.614;2023-03-26T04:11:13;98882.03;;;-0.95;79.99
15880;BME280;61999;51.514;14.614;2023-03-26T04:13:43;98877.00;;;-0.98;80.51
15880;BME280;61999;51.514;14.614;2023-03-26T04:16:11;98876.31;;;-1.02;80.86
15880;BME280;61999;51.514;14.614;2023-03-26T04:18:39;98884.69;;;-1.31;81.83
15880;BME280;61999;51.514;14.614;2023-03-26T04:21:07;98876.69;;;-0.92;80.87
15880;BME280;61999;51.514;14.614;2023-03-26T04:23:35;98877.75;;;-1.13;82.33
15880;BME280;61999;51.514;14.614;2023-03-26T04:26:06;98882.63;;;-1.42;83.38
15880;BME280;61999;51.514;14.614;2023-03-26T04:28:44;98891.75;;;-1.17;83.24
15880;BME280;61999;51.514;14.614;2023-03-26T04:31:19;98889.69;;;-1.11;82.72
15880;BME280;61999;51.514;14.614;2023-03-26T04:33:51;98895.44;;;-1.22;83.35
15880;BME280;61999;51.514;14.614;2023-03-26T04:36:25;98886.28;;;-1.65;88.70
15880;BME280;61999;51.514;14.614;2023-03-26T04:38:55;98889.84;;;-1.31;89.88
15880;BME280;61999;51.514;14.614;2023-03-26T04:41:28;98880.63;;;-1.54;91.13
15880;BME280;61999;51.514;14.614;2023-03-26T04:43:57;98894.50;;;-1.38;91.97
15880;BME280;61999;51.514;14.614;2023-03-26T04:46:27;98871.63;;;-2.01;96.41
15880;BME280;61999;51.514;14.614;2023-03-26T04:48:59;98883.44;;;-2.33;100.00
15880;BME280;61999;51.514;14.614;2023-03-26T04:51:34;98882.88;;;-2.21;100.00
15880;BME280;61999;51.514;14.614;2023-03-26T04:54:05;98879.59;;;-1.69;99.49
15880;BME280;61999;51.514;14.614;2023-03-26T04:56:41;98878.72;;;-1.87;99.10
15880;BME280;61999;51.514;14.614;2023-03-26T04:59:17;98876.84;;;-2.02;99.74
15880;BME280;61999;51.514;14.614;2023-03-26T05:01:45;98881.59;;;-1.93;97.95
15880;BME280;61999;51.514;14.614;2023-03-26T05:04:13;98876.69;;;-1.99;97.02
15880;BME280;61999;51.514;14.614;2023-03-26T05:06:41;98872.25;;;-2.15;97.51
15880;BME280;61999;51.514;14.614;2023-03-26T05:09:09;98878.00;;;-1.91;96.67
15880;BME280;61999;51.514;14.614;2023-03-26T05:11:37;98873.22;;;-1.98;95.05
15880;BME280;61999;51.514;14.614;2023-03-26T05:14:05;98878.53;;;-2.01;96.01
15880;BME280;61999;51.514;14.614;2023-03-26T05:16:35;98884.03;;;-2.09;93.97
15880;BME280;61999;51.514;14.614;2023-03-26T05:19:05;98888.50;;;-1.94;93.68
15880;BME280;61999;51.514;14.614;2023-03-26T05:21:33;98894.56;;;-1.39;91.89
15880;BME280;61999;51.514;14.614;2023-03-26T05:24:01;98884.88;;;-1.53;90.25
15880;BME280;61999;51.514;14.614;2023-03-26T05:26:29;98887.69;;;-1.77;94.33
15880;BME280;61999;51.514;14.614;2023-03-26T05:28:57;98897.50;;;-2.02;98.54
15880;BME280;61999;51.514;14.614;2023-03-26T05:31:25;98893.16;;;-2.02;99.55
15880;BME280;61999;51.514;14.614;2023-03-26T05:33:55;98891.59;;;-2.04;100.00
15880;BME280;61999;51.514;14.614;2023-03-26T05:36:23;98894.31;;;-2.07;100.00
15880;BME280;61999;51.514;14.614;2023-03-26T05:38:51;98898.94;;;-1.78;99.79
15880;BME280;61999;51.514;14.614;2023-03-26T05:41:20;98885.81;;;-1.20;96.34
15880;BME280;61999;51.514;14.614;2023-03-26T05:43:47;98894.56;;;-1.22;94.27
15880;BME280;61999;51.514;14.614;2023-03-26T05:46:16;98888.09;;;-1.13;91.57
15880;BME280;61999;51.514;14.614;2023-03-26T05:48:46;98891.16;;;-0.39;90.02
15880;BME280;61999;51.514;14.614;2023-03-26T05:51:15;98889.41;;;-0.54;88.49
15880;BME280;61999;51.514;14.614;2023-03-26T05:53:43;98902.09;;;0.31;86.55
15880;BME280;61999;51.514;14.614;2023-03-26T05:56:11;98890.72;;;0.34;83.02
15880;BME280;61999;51.514;14.614;2023-03-26T05:58:39;98892.19;;;0.84;82.64
15880;BME280;61999;51.514;14.614;2023-03-26T06:01:10;98884.84;;;1.07;81.04
15880;BME280;61999;51.514;14.614;2023-03-26T06:03:44;98893.59;;;1.48;80.33
15880;BME280;61999;51.514;14.614;2023-03-26T06:06:16;98886.16;;;1.71;78.81
15880;BME280;61999;51.514;14.614;2023-03-26T06:08:47;98885.56;;;0.94;78.58
15880;BME280;61999;51.514;14.614;2023-03-26T06:11:17;98886.50;;;0.63;79.29
15880;BME280;61999;51.514;14.614;2023-03-26T06:13:46;98889.59;;;0.84;78.07
15880;BME280;61999;51.514;14.614;2023-03-26T06:16:14;98901.19;;;1.23;77.07
15880;BME280;61999;51.514;14.614;2023-03-26T06:18:42;98897.16;;;0.73;78.33
15880;BME280;61999;51.514;14.614;2023-03-26T06:21:11;98892.59;;;0.92;77.78
15880;BME280;61999;51.514;14.614;2023-03-26T06:23:40;98898.28;;;0.53;78.37
15880;BME280;61999;51.514;14.614;2023-03-26T06:26:08;98892.13;;;-0.08;80.46
15880;BME280;61999;51.514;14.614;2023-03-26T06:28:36;98890.56;;;0.05;80.24
15880;BME280;61999;51.514;14.614;2023-03-26T06:31:05;98889.00;;;-0.97;82.46
15880;BME280;61999;51.514;14.614;2023-03-26T06:33:32;98899.03;;;-0.91;84.42
15880;BME280;61999;51.514;14.614;2023-03-26T06:36:00;98893.88;;;-1.26;86.55
15880;BME280;61999;51.514;14.614;2023-03-26T06:38:28;98891.59;;;-1.14;85.47
15880;BME280;61999;51.514;14.614;2023-03-26T06:41:02;98901.09;;;-0.80;84.64
15880;BME280;61999;51.514;14.614;2023-03-26T06:43:31;98908.41;;;-0.88;83.93
15880;BME280;61999;51.514;14.614;2023-03-26T06:45:59;98912.72;;;-0.71;82.77
15880;BME280;61999;51.514;14.614;2023-03-26T06:48:27;98906.84;;;-0.58;81.71
15880;BME280;61999;51.514;14.614;2023-03-26T06:50:56;98918.09;;;-1.09;86.21
15880;BME280;61999;51.514;14.614;2023-03-26T06:53:24;98912.28;;;-0.80;86.23
15880;BME280;61999;51.514;14.614;2023-03-26T06:55:53;98907.53;;;-0.71;85.32
15880;BME280;61999;51.514;14.614;2023-03-26T06:58:22;98907.47;;;-0.37;82.91
15880;BME280;61999;51.514;14.614;2023-03-26T07:00:52;98905.25;;;-0.11;83.48
15880;BME280;61999;51.514;14.614;2023-03-26T07:03:21;98904.66;;;0.15;80.04
15880;BME280;61999;51.514;14.614;2023-03-26T07:05:49;98907.94;;;0.35;78.40
15880;BME280;61999;51.514;14.614;2023-03-26T07:08:17;98895.22;;;0.14;77.63
15880;BME280;61999;51.514;14.614;2023-03-26T07:10:46;98901.50;;;0.72;76.94
15880;BME280;61999;51.514;14.614;2023-03-26T07:13:14;98900.91;;;-0.26;77.20
15880;BME280;61999;51.514;14.614;2023-03-26T07:15:43;98892.88;;;0.26;78.78
15880;BME280;61999;51.514;14.614;2023-03-26T07:18:11;98885.44;;;-0.12;79.25
15880;BME280;61999;51.514;14.614;2023-03-26T07:20:39;98892.97;;;0.40;76.67
15880;BME280;61999;51.514;14.614;2023-03-26T07:23:10;98891.81;;;0.30;76.49
15880;BME280;61999;51.514;14.614;2023-03-26T07:25:40;98899.28;;;0.96;74.97
15880;BME280;61999;51.514;14.614;2023-03-26T07:28:19;98893.72;;;0.42;75.34
15880;BME280;61999;51.514;14.614;2023-03-26T07:31:03;98888.91;;;0.36;73.82
15880;BME280;61999;51.514;14.614;2023-03-26T07:33:40;98891.34;;;1.14;73.77
15880;BME280;61999;51.514;14.614;2023-03-26T07:36:23;98875.28;;;0.63;71.45
15880;BME280;61999;51.514;14.614;2023-03-26T07:39:13;98891.53;;;1.11;69.65
15880;BME280;61999;51.514;14.614;2023-03-26T07:41:50;98893.47;;;0.77;67.48
15880;BME280;61999;51.514;14.614;2023-03-26T07:44:41;98892.91;;;0.42;68.04
15880;BME280;61999;51.514;14.614;2023-03-26T07:47:22;98886.13;;;0.39;68.54
15880;BME280;61999;51.514;14.614;2023-03-26T07:49:54;98876.47;;;0.57;66.58
15880;BME280;61999;51.514;14.614;2023-03-26T07:52:25;98887.53;;;0.75;67.68
15880;BME280;61999;51.514;14.614;2023-03-26T07:54:54;98891.72;;;0.47;67.31
15880;BME280;61999;51.514;14.614;2023-03-26T07:57:37;98877.75;;;0.80;67.13
15880;BME280;61999;51.514;14.614;2023-03-26T08:00:19;98895.41;;;1.03;65.70
15880;BME280;61999;51.514;14.614;2023-03-26T08:03:23;98887.19;;;0.51;66.95
15880;BME280;61999;51.514;14.614;2023-03-26T08:06:06;98900.50;;;0.75;65.18
15880;BME280;61999;51.514;14.614;2023-03-26T08:08:47;98887.13;;;0.67;65.87
15880;BME280;61999;51.514;14.614;2023-03-26T08:11:33;98888.53;;;1.02;64.60
15880;BME280;61999;51.514;14.614;2023-03-26T08:14:23;98884.47;;;1.27;65.54
15880;BME280;61999;51.514;14.614;2023-03-26T08:17:00;98884.84;;;1.35;63.74
15880;BME280;61999;51.514;14.614;2023-03-26T08:19:55;98882.81;;;1.40;64.06
15880;BME280;61999;51.514;14.614;2023-03-26T08:22:30;98874.09;;;0.68;65.31
15880;BME280;61999;51.514;14.614;2023-03-26T08:25:28;98869.91;;;1.53;62.93
15880;BME280;61999;51.514;14.614;2023-03-26T08:28:28;98876.97;;;1.22;62.55
15880;BME280;61999;51.514;14.614;2023-03-26T08:31:00;98876.84;;;1.10;62.43
15880;BME280;61999;51.514;14.614;2023-03-26T08:33:30;98853.97;;;1.59;62.57
15880;BME280;61999;51.514;14.614;2023-03-26T08:36:01;98872.53;;;2.23;60.32
15880;BME280;61999;51.514;14.614;2023-03-26T08:38:29;98858.66;;;1.95;58.77
15880;BME280;61999;51.514;14.614;2023-03-26T08:45:03;98867.00;;;2.01;58.57
15880;BME280;61999;51.514;14.614;2023-03-26T08:48:35;98857.50;;;2.14;57.87
15880;BME280;61999;51.514;14.614;2023-03-26T08:52:06;98870.47;;;1.58;58.05
15880;BME280;61999;51.514;14.614;2023-03-26T08:55:20;98861.63;;;2.04;60.49
15880;BME280;61999;51.514;14.614;2023-03-26T08:58:34;98859.47;;;1.26;60.73
15880;BME280;61999;51.514;14.614;2023-03-26T09:02:09;98865.84;;;1.63;58.99
15880;BME280;61999;51.514;14.614;2023-03-26T09:05:19;98867.44;;;2.07;58.21
15880;BME280;61999;51.514;14.614;2023-03-26T09:11:34;98870.22;;;1.63;58.27
15880;BME280;61999;51.514;14.614;2023-03-26T09:14:32;98858.16;;;1.47;60.40
15880;BME280;61999;51.514;14.614;2023-03-26T09:17:57;98862.03;;;1.12;60.22
15880;BME280;61999;51.514;14.614;2023-03-26T09:21:16;98862.13;;;1.24;60.61
15880;BME280;61999;51.514;14.614;2023-03-26T09:24:33;98866.69;;;1.21;60.51
15880;BME280;61999;51.514;14.614;2023-03-26T09:27:34;98874.56;;;1.19;61.23
15880;BME280;61999;51.514;14.614;2023-03-26T09:33:45;98862.59;;;1.60;60.77
15880;BME280;61999;51.514;14.614;2023-03-26T09:36:52;98868.81;;;1.71;60.42
15880;BME280;61999;51.514;14.614;2023-03-26T09:39:35;98862.44;;;1.34;62.18
15880;BME280;61999;51.514;14.614;2023-03-26T09:42:10;98867.22;;;1.12;61.98
15880;BME280;61999;51.514;14.614;2023-03-26T09:45:07;98857.22;;;1.34;62.87
15880;BME280;61999;51.514;14.614;2023-03-26T09:54:03;98855.19;;;1.11;62.75
15880;BME280;61999;51.514;14.614;2023-03-26T09:56:46;98858.25;;;0.73;63.04
15880;BME280;61999;51.514;14.614;2023-03-26T09:59:52;98858.00;;;0.77;63.91
15880;BME280;61999;51.514;14.614;2023-03-26T10:02:53;98853.81;;;0.75;64.15
15880;BME280;61999;51.514;14.614;2023-03-26T10:08:40;98846.84;;;1.48;63.00
15880;BME280;61999;51.514;14.614;2023-03-26T10:11:25;98844.81;;;1.54;60.97
15880;BME280;61999;51.514;14.614;2023-03-26T10:14:09;98842.50;;;2.45;60.73
15880;BME280;61999;51.514;14.614;2023-03-26T10:16:54;98841.03;;;2.80;59.64
15880;BME280;61999;51.514;14.614;2023-03-26T10:19:50;98826.56;;;3.53;57.06
15880;BME280;61999;51.514;14.614;2023-03-26T10:22:42;98829.22;;;4.01;56.53
15880;BME280;61999;51.514;14.614;2023-03-26T10:25:34;98829.03;;;4.28;55.64
15880;BME280;61999;51.514;14.614;2023-03-26T10:28:24;98830.66;;;4.53;53.44
15880;BME280;61999;51.514;14.614;2023-03-26T10:31:20;98829.97;;;3.66;54.98
15880;BME280;61999;51.514;14.614;2023-03-26T10:34:03;98829.78;;;4.17;54.61
15880;BME280;61999;51.514;14.614;2023-03-26T10:36:42;98828.53;;;3.62;53.60
15880;BME280;61999;51.514;14.614;2023-03-26T10:39:33;98836.63;;;2.55;57.53
15880;BME280;61999;51.514;14.614;2023-03-26T10:42:30;98840.53;;;2.35;59.51
15880;BME280;61999;51.514;14.614;2023-03-26T10:45:25;98835.16;;;1.27;68.88
15880;BME280;61999;51.514;14.614;2023-03-26T10:48:35;98841.47;;;1.09;69.50
15880;BME280;61999;51.514;14.614;2023-03-26T10:51:29;98828.84;;;1.45;71.87
15880;BME280;61999;51.514;14.614;2023-03-26T10:54:09;98817.56;;;2.15;65.85
15880;BME280;61999;51.514;14.614;2023-03-26T10:56:45;98817.66;;;2.40;63.08
15880;BME280;61999;51.514;14.614;2023-03-26T10:59:16;98818.56;;;3.05;60.74
15880;BME280;61999;51.514;14.614;2023-03-26T11:01:55;98812.09;;;3.36;58.45
15880;BME280;61999;51.514;14.614;2023-03-26T11:04:41;98805.88;;;4.24;55.22
15880;BME280;61999;51.514;14.614;2023-03-26T11:07:21;98801.75;;;3.84;55.95
15880;BME280;61999;51.514;14.614;2023-03-26T11:10:02;98798.69;;;4.62;55.17
15880;BME280;61999;51.514;14.614;2023-03-26T11:12:43;98798.19;;;3.61;55.67
15880;BME280;61999;51.514;14.614;2023-03-26T11:15:21;98798.91;;;3.63;57.30
15880;BME280;61999;51.514;14.614;2023-03-26T11:18:03;98799.34;;;3.57;56.42
15880;BME280;61999;51.514;14.614;2023-03-26T11:20:42;98808.88;;;3.33;59.79
15880;BME280;61999;51.514;14.614;2023-03-26T11:23:33;98805.63;;;2.65;62.50
15880;BME280;61999;51.514;14.614;2023-03-26T11:26:10;98801.91;;;2.29;64.57
15880;BME280;61999;51.514;14.614;2023-03-26T11:29:02;98805.84;;;3.39;64.55
15880;BME280;61999;51.514;14.614;2023-03-26T11:31:47;98791.03;;;3.76;62.14
15880;BME280;61999;51.514;14.614;2023-03-26T11:34:22;98785.72;;;4.26;61.33
15880;BME280;61999;51.514;14.614;2023-03-26T11:36:57;98772.25;;;5.01;59.66
15880;BME280;61999;51.514;14.614;2023-03-26T11:39:35;98773.56;;;4.95;56.12
15880;BME280;61999;51.514;14.614;2023-03-26T11:42:09;98763.72;;;5.32;56.62
15880;BME280;61999;51.514;14.614;2023-03-26T11:44:45;98752.22;;;6.11;54.31
15880;BME280;61999;51.514;14.614;2023-03-26T11:47:22;98747.00;;;6.95;50.51
15880;BME280;61999;51.514;14.614;2023-03-26T11:49:54;98742.81;;;7.63;50.83
15880;BME280;61999;51.514;14.614;2023-03-26T11:52:26;98733.06;;;8.23;47.79
15880;BME280;61999;51.514;14.614;2023-03-26T11:54:54;98732.91;;;8.35;46.34
15880;BME280;61999;51.514;14.614;2023-03-26T11:57:28;98726.91;;;9.09;45.17
15880;BME280;61999;51.514;14.614;2023-03-26T12:00:01;98720.50;;;10.02;42.64
15880;BME280;61999;51.514;14.614;2023-03-26T12:02:39;98725.78;;;11.33;41.58
15880;BME280;61999;51.514;14.614;2023-03-26T12:05:27;98720.88;;;12.30;35.75
15880;BME280;61999;51.514;14.614;2023-03-26T12:08:14;98717.19;;;13.19;37.00
15880;BME280;61999;51.514;14.614;2023-03-26T12:10:42;98709.59;;;11.95;35.24
15880;BME280;61999;51.514;14.614;2023-03-26T12:13:28;98713.78;;;11.39;35.57
15880;BME280;61999;51.514;14.614;2023-03-26T12:16:08;98721.09;;;11.19;36.93
15880;BME280;61999;51.514;14.614;2023-03-26T12:18:37;98712.09;;;10.61;36.04
15880;BME280;61999;51.514;14.614;2023-03-26T12:21:11;98714.41;;;8.27;41.16
15880;BME280;61999;51.514;14.614;2023-03-26T12:23:54;98719.63;;;10.12;39.45
15880;BME280;61999;51.514;14.614;2023-03-26T12:26:36;98719.19;;;8.60;40.87
15880;BME280;61999;51.514;14.614;2023-03-26T12:29:11;98710.59;;;8.58;41.47
15880;BME280;61999;51.514;14.614;2023-03-26T12:31:54;98693.63;;;9.45;40.75
15880;BME280;61999;51.514;14.614;2023-03-26T12:34:28;98706.03;;;8.60;40.58
15880;BME280;61999;51.514;14.614;2023-03-26T12:37:02;98704.56;;;8.95;39.35
15880;BME280;61999;51.514;14.614;2023-03-26T12:39:35;98695.44;;;8.89;41.01
15880;BME280;61999;51.514;14.614;2023-03-26T12:42:23;98713.88;;;6.84;43.64
15880;BME280;61999;51.514;14.614;2023-03-26T12:44:55;98713.75;;;6.43;41.66
15880;BME280;61999;51.514;14.614;2023-03-26T12:47:27;98713.50;;;4.84;46.69
15880;BME280;61999;51.514;14.614;2023-03-26T12:49:58;98719.44;;;4.97;48.63
15880;BME280;61999;51.514;14.614;2023-03-26T12:52:47;98715.84;;;5.21;47.24
15880;BME280;61999;51.514;14.614;2023-03-26T12:55:39;98712.19;;;5.01;48.10
15880;BME280;61999;51.514;14.614;2023-03-26T13:01:30;98712.78;;;5.59;47.63
15880;BME280;61999;51.514;14.614;2023-03-26T13:07:49;98716.66;;;6.40;43.67
15880;BME280;61999;51.514;14.614;2023-03-26T13:10:36;98708.66;;;6.63;45.13
15880;BME280;61999;51.514;14.614;2023-03-26T13:13:35;98704.81;;;8.45;41.41
15880;BME280;61999;51.514;14.614;2023-03-26T13:16:12;98691.44;;;8.85;38.40
15880;BME280;61999;51.514;14.614;2023-03-26T13:18:49;98688.94;;;9.21;37.63
15880;BME280;61999;51.514;14.614;2023-03-26T13:21:30;98688.28;;;8.15;36.63
15880;BME280;61999;51.514;14.614;2023-03-26T13:24:14;98682.28;;;6.13;41.58
15880;BME280;61999;51.514;14.614;2023-03-26T13:27:01;98681.25;;;6.25;41.50
15880;BME280;61999;51.514;14.614;2023-03-26T13:29:41;98684.81;;;6.14;42.63
15880;BME280;61999;51.514;14.614;2023-03-26T13:32:25;98679.22;;;6.08;43.19
15880;BME280;61999;51.514;14.614;2023-03-26T13:35:11;98680.91;;;6.81;41.21
15880;BME280;61999;51.514;14.614;2023-03-26T13:37:52;98679.13;;;5.33;43.52
15880;BME280;61999;51.514;14.614;2023-03-26T13:40:33;98674.59;;;6.63;42.09
15880;BME280;61999;51.514;14.614;2023-03-26T13:43:23;98675.00;;;4.41;45.29
15880;BME280;61999;51.514;14.614;2023-03-26T13:46:00;98678.38;;;4.88;45.85
15880;BME280;61999;51.514;14.614;2023-03-26T13:48:41;98665.66;;;4.61;45.69
15880;BME280;61999;51.514;14.614;2023-03-26T13:51:17;98668.13;;;4.96;45.39
15880;BME280;61999;51.514;14.614;2023-03-26T13:53:54;98676.47;;;5.45;45.92
15880;BME280;61999;51.514;14.614;2023-03-26T13:56:30;98672.03;;;5.57;42.91
15880;BME280;61999;51.514;14.614;2023-03-26T13:59:07;98668.91;;;5.85;43.05
15880;BME280;61999;51.514;14.614;2023-03-26T14:01:45;98672.25;;;5.65;43.19
15880;BME280;61999;51.514;14.614;2023-03-26T14:04:23;98671.00;;;5.48;43.09
15880;BME280;61999;51.514;14.614;2023-03-26T14:07:04;98677.06;;;4.13;44.27
15880;BME280;61999;51.514;14.614;2023-03-26T14:09:42;98662.34;;;4.01;45.42
15880;BME280;61999;51.514;14.614;2023-03-26T14:12:25;98666.16;;;4.89;44.36